createdAt,value
2023-12-14T21:26:55.359Z,17.40
2023-12-14T21:29:25.343Z,16.57
2023-12-14T21:31:55.369Z,16.93
2023-12-14T21:34:25.263Z,16.43
2023-12-14T21:36:55.166Z,19.27
2023-12-14T21:39:27.848Z,18.83
2023-12-14T21:41:57.818Z,18.50
2023-12-14T21:44:30.253Z,17.57
2023-12-14T21:47:00.461Z,16.87
2023-12-14T21:49:30.449Z,17.47
2023-12-14T21:52:00.335Z,17.43
2023-12-14T21:54:30.137Z,17.60
2023-12-14T21:56:59.998Z,18.77
2023-12-14T21:59:40.718Z,19.07
2023-12-14T22:02:10.706Z,20.90
2023-12-14T22:04:40.754Z,21.20
2023-12-14T22:07:10.623Z,21.10
2023-12-14T22:09:40.590Z,18.40
2023-12-14T22:12:17.391Z,18.83
2023-12-14T22:14:49.819Z,17.97
2023-12-14T22:17:21.273Z,18.57
2023-12-14T22:19:51.232Z,18.10
2023-12-14T22:22:21.228Z,18.27
2023-12-14T22:24:53.334Z,17.30
2023-12-14T22:27:23.232Z,16.30
2023-12-14T22:30:02.019Z,17.00
2023-12-14T22:32:31.975Z,18.10
2023-12-14T22:35:01.977Z,17.70
2023-12-14T22:37:31.815Z,16.70
2023-12-14T22:40:12.516Z,16.63
2023-12-14T22:42:42.438Z,16.90
2023-12-14T22:45:15.136Z,15.80
2023-12-14T22:47:45.556Z,16.60
2023-12-14T22:50:15.704Z,17.07
2023-12-14T22:52:48.406Z,17.90
2023-12-14T22:55:18.493Z,17.80
2023-12-14T22:57:48.467Z,17.20
2023-12-14T23:00:26.465Z,17.53
2023-12-14T23:02:59.198Z,17.60
2023-12-14T23:05:36.397Z,18.17
2023-12-14T23:08:06.309Z,16.97
2023-12-14T23:10:36.214Z,17.57
2023-12-14T23:13:06.091Z,17.20
2023-12-14T23:15:38.725Z,18.10
2023-12-14T23:18:14.191Z,16.37
2023-12-14T23:20:44.168Z,17.80
2023-12-14T23:23:16.897Z,17.50
2023-12-14T23:26:04.910Z,18.50
2023-12-14T23:28:35.147Z,18.40
2023-12-14T23:31:09.082Z,17.13
2023-12-14T23:34:53.104Z,16.73
2023-12-14T23:45:15.495Z,17.27
2023-12-14T23:48:02.966Z,15.80
2023-12-14T23:50:38.485Z,16.73
2023-12-14T23:53:13.227Z,15.90
2023-12-14T23:55:43.290Z,18.03
2023-12-14T23:58:14.265Z,17.20
